Strona główna
METAR-TAF:

METAR-TAF

Lotnisko :

Baza lotnicza

Santos, São Paulo, Brazylia

Szerokość geograficzna: 23-56S, Długość geograficzna: 046-18W, wysokość: 3 m

Aktualna obserwacja pogody

Raport powstał 57 minut temu, godzina 20:00 UTC
Wiatr 2 kt od zachodnio-południowy zachód
Temperatura 26°C
Wilgotność 84%
Ciśnienie 1010 hPa
Widzialność: 5000 m
Rozproszone chmury na wysokości 1600 ft
Przerywane chmury na wysokości 2500 ft
Mało chmury na wysokości 3000 ft, Cumulonimbus.
burza, deszcz

METAR: SBST 252000Z 25002KT 5000 TSRA SCT016 BKN025 FEW030CB 26/23 Q1010

czas: 17:57 (20:57 UTC)


TAF: brakujący

Obserwacja i prognoza pogody dla ponad 4000 lotnisk (raport METAR i TAF).

Dostępne stacje oznaczono żółtymi i czerwonymi punktami na mapie.

Najedź kursorem aby zobaczyć nazwę stacji.

Kliknij aby zobaczyć obserwacje i prognozy pogody.

Aby zmienić mapę: kliknij na zielony przycisk z czarnym krzyżykiem, aby powiększyć; na zielony przycisk z myślnikiem, aby pomniejszyć; na zielone strzałki, aby przejść do map sąsiednich.


METAR-TAF: